Dayton, OR

11:06 PM PDT on September 20, 2014 (GMT -0700)
McMinnville Municipal | Change Station
CLOSE
Current Station
Airport
Location: McMinnville,
Elevation: 157 ft
Nearby Weather Stations

Elev 157 ft 45.19 °N, 123.14 °W | Updated 13 minutes ago

Clear
Clear
74 °F
Feels Like 74 °F
N
8
Wind Variable Wind from NNW

Today
High -- | Low -- °F
--% Chance of Precip.
Yesterday
High -- | Low -- °F
Precip. -- in
6:57 AM 7:13 PM
Waning Crescent, 8% visible
Pressure 29.82 in
Visibility 10.0 miles
Clouds Clear
Dew Point 51 °F
Humidity 45%
Rainfall 0.00 in
Snow Depth 0 in , 1 in , 0 in
UV 0 out of 12
Pollen 2.40 out of 12
Air Quality Not available.
Flu Activity Not available.
METAR KMMV 210553Z AUTO 34007KT 10SM CLR 23/11 A2982 RMK AO2 SLP096 T02330106 10350 20233 52009

More Conditions Fewer Conditions

Pressure 29.82 in
Visibility 10.0 miles
Clouds Clear
Dew Point 51 °F
Humidity 45%
Rainfall 0.00 in
Snow Depth 0 in , 1 in , 0 in
UV 0 out of 12
Pollen 2.40 out of 12
Air Quality Not available.
Flu Activity Not available.
METAR KMMV 210553Z AUTO 34007KT 10SM CLR 23/11 A2982 RMK AO2 SLP096 T02330106 10350 20233 52009

More Conditions Fewer Conditions

10-Day Weather Forecast

Almanac

Astronomy

Sep. 20, 2014 Rise Set
Actual Time 6:57 AM PDT 7:13 PM PDT
Civil Twilight 6:27 AM PDT 7:42 PM PDT
Nautical Twilight 5:52 AM PDT 8:17 PM PDT
Astronomical Twilight 5:17 AM PDT 8:52 PM PDT
Moon 3:34 AM PDT (9/20) 5:25 PM PDT (9/20)
Length of Visible Light 13h 15m
Length of Day
12h 16m
Tomorrow will be 3m 8s shorter.
Waning Crescent, 8% of the Moon is Illuminated
Sep 21
Waning Crescent
Sep 24
New
Oct 1
First Quarter
Oct 8
Full
Oct 15
Last Quarter

Yesterday's Extremes

State Highs State Lows

Community

WunderPhotos

Upload Photos

1,755,098 photos uploaded!

Nearby

Snow Depth

Station Depth Elevation
Schneider Meadows 0 in 5400 ft
Fourmile Lake 1 in 6000 ft
Santiam Junction 0 in 3750 ft
Silver Creek 0 in 5720 ft
Bourne 0 in 5800 ft

Earthquake Activity

City Distance Mag. Time & Date
No recent earthquake activity has been reported nearby.
Minimum magnitude displayed is 2.5.

Coastal Water Temperatures

Place Temperature
No Stations Reporting

Nearby Weather Stations